Ana Sayfa
METAR-TAF:

METAR-TAF

Havaalanları :

Şanghay Pudong Uluslararası Havalimanı

Şanghay-Pudong, Çin

Enlem: 31-07N, Boylam: 121-46E, yükseklik: 4 m

Güncel hava durumu gözlemi

Rapor saat 03:00 UTC de 34 dakika önce yapıldı.
Rüzgar kuzeydan 14 kt, kuzey/kuzeybatı ve kuzey/kuzeydoğu arasında değişken
Sıcaklık 13°C
Nem 44%
Basınç 1029 hPa
Görüş mesafesi 10 km veya daha fazla
1500 m altında bulut yok ve kümülonimbus yok

METAR: ZSPD 190300Z 36007MPS 330V030 CAVOK 13/01 Q1029 NOSIG

Saat: 11:34 (03:34 UTC)

Tahmin

Rapor saat 21:26 UTC de 6 saat ve 8 dakika önce yapıldı.
Ayın 19'si saat 00 UTC'den ayın 19'si saat 24 UTC'ye kadar geçerli Tahmin
Rüzgar kuzey/kuzeybatıdan 12 kt
Görüş mesafesi: 6000 m
1600 ft yükseklikte parçalı çok bulutlu

TAF: ZSPD 182126Z 1900/1924 34006MPS 6000 BKN016 TX14/1906Z TN06/1921Z

4.000'den fazla havaalanı için hava durumu gözlemleri ve tahminleri (METAR ve TAF raporları).

Kullanılabilir istasyonlar harita üzerinde sarı ve kırmızı noktalarla gösterilir.

İstasyonun adını görmek için fareyi noktanın üzerinde gezdirin.

Sonrasında hava gözlem ve tahminlerini görmek için tıklayın.

Haritayı değiştirmek için: yaklaştırmak için siyah artı işaretli yeşil düğmeye ve uzaklaştırmak için de eksi işaretli düğmeye hızla tıklayın; bitişik haritalar için yeşil okları kullanın.


METAR-TAF: